Luchthaven weerrapport

 

EBBR - Brussel National Airport
Afstand tot station: NNW 8.5km
Update: 07/05/2021 08:50
Gedeeltelijk bewolkt
Gedeeltelijk bewolkt
 Wind van NW
Wind: NW 17 km/h
Temperatuur: 5°C
Gevoelstemperatuur: 2°C
Dauwpunt: 2°C
Vochtigheid: 81%
Barometer: 1013 hPa
Wolken: Gedeeltelijk bewolkt
Zicht: 10 km
Wolken in detail: Gedeeltelijk bewolkt 488 m
Gedeeltelijk bewolkt 823 m
2021/05/07 06:50 EBBR 070650Z 32009KT 300V010 9999 SCT016 SCT027 05/02 Q1013 NOSIG